createdAt,value
2018-06-14T00:00:54.300Z,14.97
2018-06-14T00:03:23.816Z,15.57
2018-06-14T00:05:53.230Z,15.43
2018-06-14T00:08:22.666Z,14.50
2018-06-14T00:10:51.485Z,13.77
2018-06-14T00:13:20.873Z,15.17
2018-06-14T00:15:50.248Z,13.57
2018-06-14T00:18:19.621Z,13.90
2018-06-14T00:20:49.004Z,14.13
2018-06-14T00:23:18.407Z,13.00
2018-06-14T00:25:47.778Z,13.13
2018-06-14T00:28:17.158Z,12.70
2018-06-14T00:30:46.598Z,12.83
2018-06-14T00:33:15.945Z,13.53
2018-06-14T00:35:45.356Z,13.23
2018-06-14T00:38:14.773Z,14.00
2018-06-14T00:40:44.280Z,15.00
2018-06-14T00:43:13.271Z,13.73
2018-06-14T00:45:42.813Z,13.63
2018-06-14T00:48:12.238Z,12.40
2018-06-14T00:50:41.710Z,14.70
2018-06-14T00:53:11.110Z,14.13
2018-06-14T00:55:40.474Z,13.43
2018-06-14T00:58:09.854Z,13.27
2018-06-14T01:00:39.252Z,13.40
2018-06-14T01:03:08.686Z,14.90
2018-06-14T01:05:38.143Z,13.90
2018-06-14T01:08:07.514Z,13.20
2018-06-14T01:10:36.994Z,14.20
2018-06-14T01:13:06.601Z,15.30
2018-06-14T01:15:35.981Z,15.00
2018-06-14T01:18:05.468Z,13.97
2018-06-14T01:20:34.912Z,14.80
2018-06-14T01:23:04.384Z,14.90
2018-06-14T01:25:33.897Z,14.60
2018-06-14T01:28:03.352Z,14.73
2018-06-14T01:30:32.185Z,12.97
2018-06-14T01:33:01.571Z,13.90
2018-06-14T01:35:30.983Z,13.80
2018-06-14T01:38:11.349Z,13.50
2018-06-14T01:40:40.865Z,14.27
2018-06-14T01:43:10.222Z,15.80
2018-06-14T01:45:39.623Z,14.73
2018-06-14T01:48:08.999Z,14.77
2018-06-14T01:50:38.373Z,14.00
2018-06-14T01:53:07.784Z,15.73
2018-06-14T01:55:37.226Z,14.80
2018-06-14T01:58:06.685Z,14.30
2018-06-14T02:00:36.076Z,14.40
2018-06-14T02:03:05.611Z,14.70
2018-06-14T02:05:35.026Z,13.23
2018-06-14T02:08:04.456Z,12.80
2018-06-14T02:10:34.040Z,13.80
2018-06-14T02:13:03.453Z,13.90
2018-06-14T02:15:32.856Z,12.87
2018-06-14T02:18:02.307Z,13.93
2018-06-14T02:20:31.659Z,14.77
2018-06-14T02:23:00.469Z,13.87
2018-06-14T02:25:29.891Z,14.70
2018-06-14T02:27:59.287Z,13.30
2018-06-14T02:30:28.711Z,12.83
2018-06-14T02:32:58.079Z,13.73
2018-06-14T02:35:27.434Z,12.07
2018-06-14T02:37:56.965Z,12.83
2018-06-14T02:40:26.321Z,13.40
2018-06-14T02:42:55.747Z,14.43
2018-06-14T02:45:25.169Z,12.60
2018-06-14T02:47:54.570Z,12.83
2018-06-14T02:50:23.378Z,13.80
2018-06-14T02:52:52.776Z,13.60
2018-06-14T02:55:22.224Z,12.67
2018-06-14T02:57:51.633Z,12.97
2018-06-14T03:00:20.528Z,13.87
2018-06-14T03:02:49.886Z,13.43
2018-06-14T03:05:19.241Z,13.10
2018-06-14T03:07:48.623Z,12.30
2018-06-14T03:10:18.035Z,14.00
2018-06-14T03:12:47.430Z,12.07
2018-06-14T03:15:16.904Z,12.10
2018-06-14T03:17:46.355Z,12.33
2018-06-14T03:20:15.837Z,12.10
2018-06-14T03:22:45.386Z,11.87
2018-06-14T03:25:14.768Z,12.20
2018-06-14T03:27:44.106Z,11.63
2018-06-14T03:30:13.611Z,12.03
2018-06-14T03:32:43.084Z,10.90
2018-06-14T03:35:11.932Z,11.77
2018-06-14T03:37:41.280Z,11.83
2018-06-14T03:40:10.673Z,12.60
2018-06-14T03:42:44.503Z,11.63
2018-06-14T03:45:17.970Z,11.93
2018-06-14T03:47:48.704Z,12.40
2018-06-14T03:50:18.085Z,11.57
2018-06-14T03:52:47.470Z,12.03
2018-06-14T03:55:16.857Z,11.70
2018-06-14T03:57:46.218Z,12.80
2018-06-14T04:00:15.573Z,11.97
2018-06-14T04:02:44.965Z,11.23
2018-06-14T04:05:14.456Z,12.77
2018-06-14T04:07:43.801Z,12.90
2018-06-14T04:10:13.221Z,13.10
2018-06-14T04:12:43.222Z,12.93
2018-06-14T04:15:12.670Z,13.20
2018-06-14T04:17:42.030Z,12.63
2018-06-14T04:20:11.421Z,13.33
2018-06-14T04:22:40.840Z,11.27
2018-06-14T04:25:10.341Z,11.63
2018-06-14T04:27:39.808Z,12.30
2018-06-14T04:30:09.176Z,12.57
2018-06-14T04:32:38.026Z,13.50
2018-06-14T04:35:07.388Z,12.70
2018-06-14T04:37:36.782Z,14.07
2018-06-14T04:40:06.220Z,13.47
2018-06-14T04:42:35.596Z,13.00
2018-06-14T04:45:05.141Z,13.10
2018-06-14T04:47:34.497Z,14.03
2018-06-14T04:50:03.988Z,13.90
2018-06-14T04:52:33.522Z,12.90
2018-06-14T04:55:02.920Z,12.57
2018-06-14T04:57:33.660Z,14.07
2018-06-14T05:00:03.079Z,14.40
2018-06-14T05:02:32.478Z,14.57
2018-06-14T05:05:01.851Z,13.87
2018-06-14T05:07:31.322Z,13.80
2018-06-14T05:10:00.723Z,14.17
2018-06-14T05:12:30.132Z,13.70
2018-06-14T05:14:59.558Z,14.27
2018-06-14T05:17:28.964Z,14.33
2018-06-14T05:19:58.410Z,13.70
2018-06-14T05:22:27.832Z,16.87
2018-06-14T05:24:57.174Z,17.87
2018-06-14T05:27:27.251Z,18.73
2018-06-14T05:29:56.625Z,18.60
2018-06-14T05:32:26.951Z,20.77
2018-06-14T05:34:56.364Z,18.40
2018-06-14T05:37:25.789Z,19.17
2018-06-14T05:39:55.201Z,21.50
2018-06-14T05:42:24.107Z,20.90
2018-06-14T05:44:53.644Z,21.93
2018-06-14T05:47:23.074Z,21.20
2018-06-14T05:49:52.599Z,20.40
2018-06-14T05:52:21.458Z,20.60
2018-06-14T05:54:50.852Z,19.87
2018-06-14T05:57:20.276Z,20.50
2018-06-14T05:59:49.680Z,20.10
2018-06-14T06:02:19.141Z,21.43
2018-06-14T06:04:48.522Z,20.33
2018-06-14T06:07:17.331Z,19.00
2018-06-14T06:09:47.805Z,20.57
2018-06-14T06:12:18.090Z,21.03
2018-06-14T06:14:48.423Z,20.90
2018-06-14T06:17:18.096Z,20.33
2018-06-14T06:19:47.652Z,18.83
2018-06-14T06:22:18.105Z,18.90
2018-06-14T06:24:47.291Z,17.73
2018-06-14T06:27:17.322Z,15.80
2018-06-14T06:29:47.048Z,18.60
2018-06-14T06:32:16.012Z,16.03
2018-06-14T06:34:45.628Z,15.13
2018-06-14T06:37:14.550Z,15.60
2018-06-14T06:39:43.953Z,13.63
2018-06-14T06:42:13.326Z,15.30
2018-06-14T06:44:42.726Z,14.60
2018-06-14T06:47:12.177Z,15.50
2018-06-14T06:49:41.518Z,14.28
2018-06-14T06:52:10.918Z,13.27
2018-06-14T06:54:40.262Z,14.43
2018-06-14T06:57:09.643Z,12.53
2018-06-14T06:59:39.106Z,13.90
2018-06-14T07:02:08.455Z,13.47
2018-06-14T07:04:37.324Z,13.33
2018-06-14T07:07:07.656Z,13.27
2018-06-14T07:09:38.028Z,13.47
2018-06-14T07:12:07.390Z,12.83
2018-06-14T07:14:36.160Z,12.97
2018-06-14T07:17:05.645Z,12.67
2018-06-14T07:19:35.019Z,11.43
2018-06-14T07:22:04.431Z,14.40
2018-06-14T07:24:33.831Z,15.90
2018-06-14T07:27:03.178Z,16.83
2018-06-14T07:29:32.487Z,15.70
2018-06-14T07:32:01.864Z,17.70
2018-06-14T07:34:31.247Z,15.70
2018-06-14T07:37:00.710Z,16.23
2018-06-14T07:39:30.100Z,16.00
2018-06-14T07:41:58.917Z,16.40
2018-06-14T07:44:28.223Z,16.60
2018-06-14T07:46:57.579Z,16.40
2018-06-14T07:49:26.986Z,18.00
2018-06-14T07:51:55.797Z,17.30
2018-06-14T07:54:25.162Z,15.00
2018-06-14T07:56:54.481Z,17.17
2018-06-14T07:59:24.167Z,17.23
2018-06-14T08:01:53.586Z,14.90
2018-06-14T08:04:23.356Z,16.70
2018-06-14T08:06:53.448Z,17.50
2018-06-14T08:09:23.147Z,17.10
2018-06-14T08:11:52.866Z,18.90
2018-06-14T08:14:22.240Z,17.52
2018-06-14T08:16:51.591Z,16.73
2018-06-14T08:19:21.050Z,17.23
2018-06-14T08:21:50.463Z,18.73
2018-06-14T08:24:19.876Z,16.40
2018-06-14T08:26:49.329Z,17.07
2018-06-14T08:29:18.653Z,17.50
2018-06-14T08:31:48.088Z,17.07
2018-06-14T08:34:17.432Z,17.13
2018-06-14T08:36:46.732Z,15.53
2018-06-14T08:39:16.104Z,16.00
2018-06-14T08:41:45.456Z,14.87
2018-06-14T08:44:14.883Z,16.23
2018-06-14T08:46:43.699Z,16.70
2018-06-14T08:49:13.092Z,17.53
2018-06-14T08:51:42.514Z,17.57
2018-06-14T08:54:11.895Z,17.30
2018-06-14T08:56:41.368Z,17.23
2018-06-14T08:59:10.222Z,15.37
2018-06-14T09:01:39.564Z,14.90
2018-06-14T09:04:08.988Z,15.37
2018-06-14T09:06:38.393Z,15.00
2018-06-14T09:09:09.584Z,14.60
2018-06-14T09:11:39.557Z,13.33
2018-06-14T09:14:09.908Z,14.70
2018-06-14T09:16:39.374Z,13.03
2018-06-14T09:19:08.749Z,12.67
2018-06-14T09:21:37.594Z,14.43
2018-06-14T09:24:06.954Z,14.00
2018-06-14T09:26:35.773Z,13.43
2018-06-14T09:29:05.168Z,14.03
2018-06-14T09:31:34.596Z,12.07
2018-06-14T09:34:03.999Z,14.87
2018-06-14T09:36:34.402Z,13.73
2018-06-14T09:39:05.064Z,13.23
2018-06-14T09:41:34.503Z,12.60
2018-06-14T09:44:03.392Z,14.83
2018-06-14T09:46:32.229Z,14.30
2018-06-14T09:49:06.607Z,12.80
2018-06-14T09:51:35.967Z,13.07
2018-06-14T09:54:05.499Z,13.10
2018-06-14T09:56:35.113Z,12.17
2018-06-14T09:59:04.648Z,12.10
2018-06-14T10:01:34.039Z,12.10
2018-06-14T10:04:03.410Z,11.30
2018-06-14T10:06:32.823Z,11.97
2018-06-14T10:09:02.268Z,12.63
2018-06-14T10:11:31.678Z,11.57
2018-06-14T10:14:01.037Z,12.70
2018-06-14T10:16:29.836Z,11.67
2018-06-14T10:18:58.618Z,11.47
2018-06-14T10:21:28.393Z,9.87
2018-06-14T10:23:57.771Z,10.37
2018-06-14T10:26:27.152Z,12.00
2018-06-14T10:28:56.519Z,11.87
2018-06-14T10:31:25.333Z,12.40
2018-06-14T10:33:54.877Z,11.10
2018-06-14T10:36:24.271Z,9.97
2018-06-14T10:38:53.628Z,10.53
2018-06-14T10:41:22.414Z,9.90
2018-06-14T10:43:51.222Z,10.90
2018-06-14T10:46:20.554Z,9.73
2018-06-14T10:48:49.865Z,10.00
2018-06-14T10:51:19.215Z,10.60
2018-06-14T10:53:48.546Z,8.67
2018-06-14T10:56:17.896Z,10.50
2018-06-14T10:58:47.271Z,10.70
2018-06-14T11:01:16.752Z,9.80
2018-06-14T11:03:46.096Z,7.80
2018-06-14T11:06:15.493Z,7.80
2018-06-14T11:08:44.844Z,9.27
2018-06-14T11:11:14.237Z,7.70
2018-06-14T11:13:43.712Z,10.27
2018-06-14T11:16:13.142Z,8.30
2018-06-14T11:18:42.536Z,9.93
2018-06-14T11:21:11.431Z,9.73
2018-06-14T11:23:40.853Z,9.20
2018-06-14T11:26:10.690Z,9.80
2018-06-14T11:28:40.126Z,9.27
2018-06-14T11:31:09.521Z,9.60
2018-06-14T11:33:38.872Z,8.97
2018-06-14T11:36:08.307Z,10.90
2018-06-14T11:38:37.625Z,10.17
2018-06-14T11:41:06.976Z,11.10
2018-06-14T11:43:36.271Z,11.23
2018-06-14T11:46:05.912Z,11.40
2018-06-14T11:48:35.304Z,11.03
2018-06-14T11:51:04.652Z,10.40
2018-06-14T11:53:34.177Z,11.80
2018-06-14T11:56:03.009Z,12.10
2018-06-14T11:58:32.862Z,13.07
2018-06-14T12:01:01.682Z,13.83
2018-06-14T12:03:31.029Z,13.80
2018-06-14T12:06:00.415Z,13.30
2018-06-14T12:08:29.772Z,13.00
2018-06-14T12:10:59.241Z,14.27
2018-06-14T12:13:28.689Z,11.77
2018-06-14T12:15:58.050Z,15.00
2018-06-14T12:18:27.399Z,12.37
2018-06-14T12:20:56.833Z,13.83
2018-06-14T12:23:26.268Z,13.00
2018-06-14T12:25:55.079Z,14.17
2018-06-14T12:28:24.369Z,13.67
2018-06-14T12:30:53.581Z,12.43
2018-06-14T12:33:22.825Z,12.23
2018-06-14T12:35:52.152Z,12.83
2018-06-14T12:38:21.375Z,13.87
2018-06-14T12:40:50.138Z,12.87
2018-06-14T12:43:19.452Z,13.47
2018-06-14T12:45:48.355Z,18.70
2018-06-14T12:48:17.064Z,14.63
2018-06-14T12:50:47.925Z,12.87
2018-06-14T12:53:17.492Z,19.90
2018-06-14T12:55:46.962Z,10.55
2018-06-14T12:58:16.329Z,12.73
2018-06-14T13:00:45.616Z,9.70
2018-06-14T13:03:14.887Z,11.60
2018-06-14T13:05:44.146Z,8.45
2018-06-14T13:08:13.492Z,9.30
2018-06-14T13:10:42.865Z,8.83
2018-06-14T13:13:12.069Z,7.93
2018-06-14T13:15:40.794Z,9.30
2018-06-14T13:18:10.149Z,10.20
2018-06-14T13:20:39.402Z,9.87
2018-06-14T13:23:08.756Z,11.13
2018-06-14T13:25:37.980Z,9.53
2018-06-14T13:28:08.452Z,9.58
2018-06-14T13:30:37.697Z,8.90
2018-06-14T13:33:06.935Z,10.37
2018-06-14T13:35:36.304Z,9.17
2018-06-14T13:38:05.633Z,9.50
2018-06-14T13:40:34.834Z,9.87
2018-06-14T13:43:04.109Z,7.60
2018-06-14T13:45:33.533Z,8.57
2018-06-14T13:48:02.840Z,7.77
2018-06-14T13:50:32.427Z,9.70
2018-06-14T13:53:01.937Z,7.50
2018-06-14T13:55:31.614Z,8.73
2018-06-14T13:58:00.905Z,7.40
2018-06-14T14:00:30.294Z,8.83
2018-06-14T14:02:59.098Z,9.07
2018-06-14T14:05:28.402Z,7.87
2018-06-14T14:07:57.680Z,7.87
2018-06-14T14:10:26.940Z,7.80
2018-06-14T14:12:56.183Z,8.63
2018-06-14T14:15:25.003Z,7.33
2018-06-14T14:17:54.340Z,7.13
2018-06-14T14:20:23.561Z,6.20
2018-06-14T14:22:52.907Z,7.40
2018-06-14T14:25:22.171Z,7.60
2018-06-14T14:27:51.489Z,8.73
2018-06-14T14:30:21.068Z,8.17
2018-06-14T14:32:50.357Z,8.50
2018-06-14T14:35:19.740Z,8.63
2018-06-14T14:37:52.149Z,8.13
2018-06-14T14:40:21.636Z,8.07
2018-06-14T14:42:51.154Z,6.77
2018-06-14T14:45:20.411Z,6.50
2018-06-14T14:47:49.786Z,7.57
2018-06-14T14:50:19.795Z,7.20
2018-06-14T14:52:48.534Z,6.57
2018-06-14T14:55:17.776Z,6.70
2018-06-14T14:57:46.570Z,7.40
2018-06-14T15:00:15.374Z,7.80
2018-06-14T15:02:44.725Z,6.47
2018-06-14T15:05:15.749Z,5.40
2018-06-14T15:07:44.967Z,6.50
2018-06-14T15:10:14.180Z,6.17
2018-06-14T15:12:43.533Z,6.00
2018-06-14T15:15:12.822Z,5.83
2018-06-14T15:17:42.059Z,5.57
2018-06-14T15:20:11.267Z,6.43
2018-06-14T15:22:40.467Z,5.93
2018-06-14T15:25:09.725Z,4.80
2018-06-14T15:27:38.970Z,5.40
2018-06-14T15:30:08.156Z,4.83
2018-06-14T15:32:37.412Z,6.17
2018-06-14T15:35:06.740Z,5.20
2018-06-14T15:37:35.945Z,6.63
2018-06-14T15:40:05.271Z,5.53
2018-06-14T15:42:33.960Z,5.63
2018-06-14T15:45:02.648Z,5.93
2018-06-14T15:47:31.929Z,5.40
2018-06-14T15:50:01.214Z,4.30
2018-06-14T15:52:30.506Z,4.87
2018-06-14T15:55:10.574Z,4.50
2018-06-14T15:57:39.894Z,4.93
2018-06-14T16:00:08.663Z,4.60
2018-06-14T16:02:37.968Z,4.77
2018-06-14T16:05:07.265Z,4.37
2018-06-14T16:07:36.522Z,4.70
2018-06-14T16:10:05.800Z,4.60
2018-06-14T16:12:35.046Z,5.17
2018-06-14T16:15:04.322Z,4.50
2018-06-14T16:17:33.633Z,4.60
2018-06-14T16:20:02.904Z,4.70
2018-06-14T16:22:32.312Z,5.40
2018-06-14T16:25:01.609Z,4.50
2018-06-14T16:27:30.860Z,5.43
2018-06-14T16:30:00.170Z,5.47
2018-06-14T16:32:29.452Z,4.63
2018-06-14T16:34:58.713Z,5.40
2018-06-14T16:37:27.959Z,5.70
2018-06-14T16:39:57.237Z,5.20
2018-06-14T16:42:26.504Z,4.97
2018-06-14T16:44:55.728Z,4.57
2018-06-14T16:47:24.987Z,4.83
2018-06-14T16:49:54.179Z,5.30
2018-06-14T16:52:22.976Z,5.10
2018-06-14T16:54:52.272Z,5.20
2018-06-14T16:57:21.006Z,5.73
2018-06-14T16:59:50.284Z,5.20
2018-06-14T17:02:19.563Z,4.43
2018-06-14T17:04:48.788Z,5.73
2018-06-14T17:07:18.016Z,6.57
2018-06-14T17:09:47.468Z,5.87
2018-06-14T17:12:16.746Z,6.20
2018-06-14T17:14:45.517Z,5.07
2018-06-14T17:17:14.294Z,5.80
2018-06-14T17:19:43.625Z,6.97
2018-06-14T17:22:12.321Z,5.83
2018-06-14T17:24:41.588Z,6.47
2018-06-14T17:27:10.870Z,6.80
2018-06-14T17:29:40.167Z,6.73
2018-06-14T17:32:09.455Z,6.03
2018-06-14T17:34:38.699Z,6.73
2018-06-14T17:37:07.427Z,6.63
2018-06-14T17:39:36.705Z,7.90
2018-06-14T17:42:06.038Z,7.13
2018-06-14T17:44:35.328Z,8.40
2018-06-14T17:47:04.654Z,6.87
2018-06-14T17:49:33.895Z,6.30
2018-06-14T17:52:02.634Z,7.70
2018-06-14T17:54:31.950Z,9.73
2018-06-14T17:57:01.316Z,7.80
2018-06-14T17:59:30.566Z,8.53
2018-06-14T18:01:59.415Z,8.60
2018-06-14T18:04:28.664Z,7.60
2018-06-14T18:06:57.919Z,7.93
2018-06-14T18:09:27.228Z,9.43
2018-06-14T18:11:56.466Z,9.97
2018-06-14T18:14:25.720Z,9.60
2018-06-14T18:16:55.428Z,9.60
2018-06-14T18:19:24.721Z,10.90
2018-06-14T18:21:53.947Z,11.07
2018-06-14T18:24:23.203Z,10.97
2018-06-14T18:26:52.460Z,10.37
2018-06-14T18:29:21.183Z,10.50
2018-06-14T18:31:50.479Z,10.80
2018-06-14T18:34:19.760Z,11.93
2018-06-14T18:36:48.937Z,11.47
2018-06-14T18:39:18.328Z,11.80
2018-06-14T18:41:47.597Z,12.47
2018-06-14T18:44:16.919Z,12.17
2018-06-14T18:46:46.356Z,15.30
2018-06-14T18:49:15.160Z,11.90
2018-06-14T18:51:44.532Z,12.50
2018-06-14T18:54:13.868Z,14.53
2018-06-14T18:56:43.161Z,13.07
2018-06-14T18:59:12.430Z,13.40
2018-06-14T19:01:41.665Z,14.03
2018-06-14T19:04:10.998Z,13.73
2018-06-14T19:06:40.422Z,12.90
2018-06-14T19:09:11.123Z,15.50
2018-06-14T19:11:40.683Z,14.23
2018-06-14T19:14:10.307Z,15.30
2018-06-14T19:16:39.605Z,14.67
2018-06-14T19:19:08.890Z,13.37
2018-06-14T19:21:37.623Z,14.40
2018-06-14T19:24:07.027Z,13.67
2018-06-14T19:26:36.289Z,12.80
2018-06-14T19:29:05.532Z,15.20
2018-06-14T19:31:34.782Z,12.40
2018-06-14T19:34:03.515Z,11.60
2018-06-14T19:36:33.029Z,12.07
2018-06-14T19:39:02.313Z,14.70
2018-06-14T19:41:31.566Z,16.40
2018-06-14T19:44:00.371Z,15.50
2018-06-14T19:46:29.673Z,16.13
2018-06-14T19:48:58.986Z,20.50
2018-06-14T19:51:28.459Z,17.40
2018-06-14T19:53:57.163Z,16.30
2018-06-14T19:56:26.527Z,14.70
2018-06-14T19:58:55.807Z,14.60
2018-06-14T20:01:25.248Z,15.70
2018-06-14T20:03:53.983Z,17.83
2018-06-14T20:06:23.323Z,18.73
2018-06-14T20:08:52.643Z,17.30
2018-06-14T20:11:21.998Z,16.40
2018-06-14T20:13:51.273Z,16.37
2018-06-14T20:16:20.661Z,15.37
2018-06-14T20:18:49.894Z,16.27
2018-06-14T20:21:19.253Z,15.40
2018-06-14T20:23:48.612Z,14.83
2018-06-14T20:26:17.957Z,15.67
2018-06-14T20:28:47.319Z,16.93
2018-06-14T20:31:16.152Z,13.50
2018-06-14T20:33:45.600Z,14.53
2018-06-14T20:36:14.900Z,14.80
2018-06-14T20:38:44.319Z,12.43
2018-06-14T20:41:13.776Z,13.73
2018-06-14T20:43:43.162Z,15.13
2018-06-14T20:46:12.437Z,14.17
2018-06-14T20:48:41.746Z,14.00
2018-06-14T20:51:10.459Z,16.77
2018-06-14T20:53:39.769Z,14.20
2018-06-14T20:56:09.233Z,18.07
2018-06-14T20:58:38.908Z,18.30
2018-06-14T21:01:22.974Z,20.43
2018-06-14T21:03:52.656Z,18.80
2018-06-14T21:06:22.064Z,17.57
2018-06-14T21:08:51.908Z,15.80
2018-06-14T21:11:21.231Z,15.70
2018-06-14T21:13:50.527Z,15.70
2018-06-14T21:16:19.862Z,14.30
2018-06-14T21:18:49.109Z,13.27
2018-06-14T21:21:18.414Z,14.80
2018-06-14T21:23:47.818Z,15.17
2018-06-14T21:26:17.106Z,14.53
2018-06-14T21:28:45.856Z,15.07
2018-06-14T21:31:15.120Z,14.80
2018-06-14T21:33:44.445Z,14.37
2018-06-14T21:36:13.711Z,9.77
2018-06-14T21:38:42.540Z,13.17
2018-06-14T21:41:11.908Z,12.70
2018-06-14T21:43:41.161Z,10.30
2018-06-14T21:46:10.457Z,10.73
2018-06-14T21:48:39.776Z,9.07
2018-06-14T21:51:09.076Z,11.83
2018-06-14T21:53:38.373Z,10.83
2018-06-14T21:56:07.613Z,11.50
2018-06-14T21:58:36.922Z,13.00
2018-06-14T22:01:06.944Z,13.80
2018-06-14T22:03:41.252Z,13.40
2018-06-14T22:06:10.587Z,13.57
2018-06-14T22:08:39.894Z,13.60
2018-06-14T22:11:09.239Z,12.80
2018-06-14T22:13:38.594Z,13.60
2018-06-14T22:16:07.856Z,12.73
2018-06-14T22:18:37.111Z,11.07
2018-06-14T22:21:06.444Z,12.60
2018-06-14T22:23:35.683Z,13.90
2018-06-14T22:26:04.976Z,13.73
2018-06-14T22:28:34.265Z,13.63
2018-06-14T22:31:03.536Z,13.73
2018-06-14T22:33:43.942Z,11.17
2018-06-14T22:36:13.190Z,11.27
2018-06-14T22:38:42.481Z,11.20
2018-06-14T22:41:11.806Z,11.40
2018-06-14T22:43:41.105Z,10.90
2018-06-14T22:46:10.339Z,12.47
2018-06-14T22:48:39.651Z,10.70
2018-06-14T22:51:19.962Z,12.10
2018-06-14T22:53:49.325Z,11.83
2018-06-14T22:56:18.718Z,11.20
2018-06-14T22:58:47.942Z,11.50
2018-06-14T23:01:31.506Z,12.00
2018-06-14T23:04:01.444Z,11.73
2018-06-14T23:06:30.805Z,12.07
2018-06-14T23:09:01.194Z,11.63
2018-06-14T23:11:30.810Z,10.90
2018-06-14T23:14:00.134Z,12.10
2018-06-14T23:16:29.456Z,11.07
2018-06-14T23:18:58.752Z,12.63
2018-06-14T23:21:28.024Z,13.20
2018-06-14T23:23:57.288Z,12.20
2018-06-14T23:26:26.616Z,12.00
2018-06-14T23:28:56.026Z,11.80
2018-06-14T23:31:25.455Z,13.17
2018-06-14T23:33:55.213Z,13.03
2018-06-14T23:36:24.583Z,12.60
2018-06-14T23:38:54.052Z,11.80
2018-06-14T23:41:23.496Z,12.40
2018-06-14T23:43:52.776Z,12.30
2018-06-14T23:46:22.091Z,12.77
2018-06-14T23:48:51.412Z,12.10
2018-06-14T23:51:20.760Z,11.60
2018-06-14T23:53:49.728Z,12.00
2018-06-14T23:56:19.001Z,12.60
2018-06-14T23:58:48.287Z,12.53
